• Join FlightAware (Why Join?)
  • Login
  • US Flag 
Rudolph Flight #1: Arrived! 
05:21AM EST


 

Airport Tracker/Info


-or-


 

Live Flight TrackerFlight Track Log ✈ LAN930 ✈ 14-Jun-2013 ✈ SCEL / SCL - SAME / MDZ

Flight Track Log - Related Links

Times and Time Zones

All times are in EDT time to prevent confusion due to time zone crossing. See the LAN930 flight status page for this flight to view local times or setup timezone preferences in your user account.

Time Position Orientation Groundspeed Altitude Reporting Facility
EDT Latitude Longitude Course Direction KTS MPH feet Rate Location/Type
09:56AM -33.7980 -69.9110 97° East 423 487 22,000  Level FlightAware
09:59AM -33.7232 -69.8232 44° Northeast  Level Estimated
10:00AM -33.6952 -69.7903 44° Northeast  Level Estimated
10:01AM -33.6671 -69.7574 44° Northeast  Level Estimated
10:02AM -33.6390 -69.7245 44° Northeast  Level Estimated
10:03AM -33.6109 -69.6917 44° Northeast  Level Estimated
10:04AM -33.5829 -69.6589 44° Northeast  Level Estimated
10:05AM -33.5547 -69.6261 44° Northeast  Level Estimated
10:06AM -33.5266 -69.5933 44° Northeast  Level Estimated
10:07AM -33.4985 -69.5605 44° Northeast  Level Estimated
10:08AM -33.4727 -69.5305 44° Northeast  Level Estimated
10:09AM -33.4468 -69.5005 44° Northeast  Level Estimated
10:10AM -33.4210 -69.4704 44° Northeast  Level Estimated
10:11AM -33.3952 -69.4404 44° Northeast  Level Estimated
10:12AM -33.3693 -69.4104 44° Northeast  Level Estimated
10:13AM -33.3434 -69.3805 44° Northeast  Level Estimated
10:14AM -33.3176 -69.3505 44° Northeast  Level Estimated
10:15AM -33.2917 -69.3206 44° Northeast  Level Estimated
10:16AM -33.2658 -69.2906 44° Northeast  Level Estimated
10:17AM -33.2399 -69.2607 44° Northeast  Level Estimated
10:18AM -33.2140 -69.2309 44° Northeast  Level Estimated
10:19AM -33.1881 -69.2010 44° Northeast  Level Estimated
10:20AM -33.1622 -69.1712 44° Northeast  Level Estimated
10:21AM -33.1362 -69.1413 44° Northeast  Level Estimated
10:22AM -33.1103 -69.1115 44° Northeast  Level Estimated
10:23AM -33.0844 -69.0817 44° Northeast  Level Estimated
10:24AM -33.0584 -69.0519 44° Northeast  Level Estimated
10:25AM -33.0325 -69.0222 44° Northeast  Level Estimated
10:26AM -33.0065 -68.9924 44° Northeast  Level Estimated
10:27AM -32.9805 -68.9627 44° Northeast  Level Estimated
10:28AM -32.9546 -68.9330 44° Northeast  Level Estimated
10:29AM -32.9286 -68.9033 44° Northeast  Level Estimated
10:30AM -32.9026 -68.8737 44° Northeast  Level Estimated
10:31AM -32.8766 -68.8440 44° Northeast  Level Estimated
10:32AM -32.8506 -68.8144 44° Northeast  Level Estimated
10:33AM -32.8317 -68.7929 44° Northeast  Level Estimated
10:34AM -32.8317 -68.7929 48° Northeast  Level Estimated
10:35AM -32.8317 -68.7929 48° Northeast  Level Estimated
10:36AM -32.8317 -68.7929 48° Northeast  Level Estimated